x

New Dungeness - 17 Nm Ne Of Port Angeles, Wa (46088) Wave Buoy

10:20 - Tue 9th Feb 2016 All times are PST. -8 hours from GMT.

  • Sig Wave height 0.3ft
  • Average Period 5s
  • Wind
    2mph, 4mph gusts
  • Sea Temp 48°f
  • Luft Temp 48°f
  • Sea Pressure 1022mb
  • New Dungeness - 17 Nm Ne Of Port Angeles, Wa
  • New Dungeness - 17 Nm Ne Of Port Angeles, Wa

More Historic Weather Station data

Upgrade to MSW Pro to gain access to the past 30 days of data for over 8000 Wavebouys and Weather Stations around the globe.

Join Pro

Comparision Forecast

View Surf forecast
   
Di 02/09 10:20 0.3ft  -  5s 2 4 mph 1022mb 48f 48f
9:50 0.3ft  -  6s 4 7 mph 1021.8mb 48f 48f
9:20 0.3ft  -  5s  -  2 mph 1022mb 48f 49f
8:50 0.3ft  -  5s 2 4 mph 1022mb 48f 47f
8:20 0.3ft  -  6s 2 4 mph 1022mb 48f 47f
7:50 0.3ft  -  5s 4
mph
1021.6mb 47f 47f
7:20 0.3ft  -  5s 2
mph
1021.6mb 47f 47f
6:50 0.3ft  -  4s 2 4 mph 1021.6mb 47f 47f
6:20 0.3ft  -  4s 2
mph
1022mb 48f 47f
5:50 0.7ft  -  3s 2
mph
1022.2mb 48f 47f
5:20 0.3ft  -  4s 2
mph
1022.3mb 48f 47f
4:50 0.3ft  -  4s 2 4 mph 1022.6mb 48f 47f
4:20 0.3ft  -  3s 4
mph
1022.8mb 48f 47f
3:50 0.3ft  -  4s 4
mph
1023mb 48f 47f
3:20 0.3ft  -  4s 2
mph
1023.3mb 47f 47f
2:50 0.3ft  -  3s 4 7 mph 1023.6mb 47f 48f
2:20 0.3ft  -  4s 9 11 mph 1023.9mb 47f 48f
1:50 0.7ft  -  4s 7
mph
1024.3mb 47f 48f
1:20 0.7ft  -  4s 9
mph
1024.8mb 47f 48f
12:50 0.7ft  -  4s 7 9 mph 1025.3mb 47f 48f
12:20 0.3ft  -  3s 7 9 mph 1025.6mb 47f 48f
Mo 02/08 11:50 0.7ft  -  3s 7 9 mph 1025.9mb 47f 48f
11:20 0.7ft  -  3s 7 9 mph 1026.3mb 48f 48f
10:50 0.7ft  -  4s 7 9 mph 1026.6mb 48f 48f
10:20 1ft 14s 4s 7 9 mph 1026.7mb 48f 48f
9:50 0.7ft  -  6s 11 16 mph 1026.9mb 48f 48f
9:20 0.7ft  -  5s 11 13 mph 1027.1mb 47f 48f
8:50 0.3ft  -  4s 7 9 mph 1027.5mb 48f 48f
8:20 0.3ft  -  5s 2 4 mph 1027.6mb 48f 47f
7:50 0.3ft  -  4s 4 7 mph 1027.6mb 48f 48f
7:20 0.3ft  -  4s 4
mph
1027.8mb 48f 48f
6:50 0.3ft  -  3s  -  2 mph 1028.1mb 48f 48f
6:20 0.7ft  -  4s 2
mph
1028.1mb 48f 48f
5:50 0.3ft  -  3s 2 4 mph 1028.2mb 48f 49f
5:20 0.3ft  -  3s 4
mph
1028.4mb 48f 49f
4:50 0.7ft  -  4s 7
mph
1028.4mb 48f 50f
4:20 0.3ft  -  3s 7 9 mph 1028.6mb 48f 50f
3:50 0.3ft  -  3s 7 9 mph 1028.6mb 48f 49f
3:20 0.3ft  -  3s 9
mph
1028.9mb 48f 49f
2:50 0.7ft  -  3s 9
mph
1029mb 48f 49f
2:20 0.7ft  -  4s 9 11 mph 1029.2mb 48f 49f
1:50 0.3ft  -  4s 9 11 mph 1029.6mb 48f 49f
1:20 0.7ft  -  4s 9
mph
1030.1mb 48f 48f
12:50 0.7ft  -  3s 7 9 mph 1030.4mb 48f 48f
12:20 0.7ft  -  3s 7 9 mph 1031mb 48f 47f
11:50 0.7ft  -  3s 9
mph
1031.5mb 48f 47f
11:20 0.7ft  -  4s 9 11 mph 1031.8mb 48f 47f
10:50 0.7ft  -  3s 9 11 mph 1032.2mb 48f 47f
10:20 0.3ft  -  4s 11 13 mph 1032.3mb 48f 47f
9:50 0.3ft  -  4s 9 13 mph 1032.2mb 47f 47f
9:20 0.3ft  -  4s 7 9 mph 1032mb 47f 47f
8:50 0.3ft  -  5s 9 11 mph 1032mb 48f 47f
8:20 0.3ft  -  3s 9
mph
1031.9mb 48f 47f
7:50 0.3ft  -  4s 7 9 mph 1032mb 47f 46f
7:20 0.3ft  -  3s 9
mph
1031.9mb 48f 46f
6:50 0.7ft  -  3s 7 9 mph 1031.9mb 47f 46f
6:20 0.7ft  -  3s 7 9 mph 1031.8mb 47f 47f
5:50 0.7ft  -  3s 7 9 mph 1031.9mb 48f 47f
5:20 0.7ft  -  3s 9 11 mph 1031.9mb 48f 47f
4:50 0.7ft  -  3s 11 13 mph 1032.1mb 48f 47f
4:20 0.7ft  -  3s 11 13 mph 1032mb 48f 47f
3:50 0.7ft  -  3s 13
mph
1032.1mb 48f 47f
3:20 0.7ft  -  3s 11 13 mph 1032.2mb 48f 47f
2:50 0.7ft  -  3s 11 13 mph 1032.6mb 47f 47f
2:20 0.7ft  -  3s 13
mph
1032.5mb 47f 47f
1:50 0.7ft  -  3s 13 16 mph 1032.7mb 48f 47f
1:20 0.7ft  -  3s 11 16 mph 1033mb 48f 47f
12:50 0.7ft  -  3s 13 16 mph 1033.1mb 48f 47f
12:20 0.7ft  -  3s 11 16 mph 1033.5mb 47f 47f
So 02/07 11:50 0.7ft  -  3s 11 13 mph 1033.5mb 47f 47f
11:20 0.7ft  -  3s 13 16 mph 1033.2mb 48f 47f
10:50 1ft 11s 3s 13 16 mph 1033.4mb 48f 47f
10:20 0.7ft  -  3s 13 16 mph 1033.6mb 48f 47f
9:50 1ft 2s 3s 13 16 mph 1033.8mb 48f 47f
9:20 1ft 12s 3s 16 18 mph 1034.1mb 48f 47f
8:50 0.7ft  -  3s 16 18 mph 1034.1mb 48f 47f
8:20 0.7ft  -  3s 16 18 mph 1034.2mb 48f 47f
7:50 0.7ft  -  3s 11 13 mph 1034.2mb 48f 47f
7:20 0.7ft  -  3s 11 13 mph 1034.3mb 48f 47f
6:50 0.7ft  -  3s 11 13 mph 1034.4mb 48f 47f
6:20 0.7ft  -  3s 9 11 mph 1034.3mb 48f 47f
5:50 0.3ft  -  3s 11 13 mph 1034.4mb 48f 47f
5:20 0.3ft  -  3s 11 13 mph 1034.5mb 48f 47f
4:50 0.3ft  -  3s 7
mph
1034.8mb 48f 47f
4:20 0.3ft  -  3s 4
mph
1034.6mb 48f 47f
3:50 0.3ft  -  3s 2 4 mph 1034.8mb 48f 46f
3:20 0.3ft  -  3s 2 4 mph 1034.8mb 48f 46f
2:50 0.3ft  -  3s 2 4 mph 1034.8mb 48f 46f
2:20 0.7ft  -  3s 2 4 mph 1034.6mb 48f 46f
1:50 0.7ft  -  3s 2 4 mph 1035mb 48f 46f
1:20 0.7ft  -  3s 4 7 mph 1035.2mb 48f 45f
12:50 0.7ft  -  3s 7
mph
1035.5mb 48f 46f
12:20 0.7ft  -  3s 4
mph
1035.9mb 48f 45f
11:50 1ft 3s 3s 7 9 mph 1035.7mb 48f 45f
11:20 1ft 3s 3s 9
mph
1035.3mb 48f 45f
10:50 1ft 12s 3s 11 13 mph 1035.1mb 48f 45f
10:20 0.7ft  -  5s 9 11 mph 1035mb 48f 44f
9:50 0.7ft  -  3s 7 9 mph 1034.7mb 47f 45f
9:20 1ft 12s 4s 7 9 mph 1034.5mb 47f 44f
8:50 0.7ft  -  4s 9 11 mph 1034.2mb 47f 44f
8:20 0.7ft  -  4s 11 13 mph 1033.6mb 47f 44f
7:50 0.7ft  -  3s 11 13 mph 1033.8mb 47f 45f
7:20 0.7ft  -  3s 9 11 mph 1033.6mb 47f 44f
6:50 1ft 9s 3s 9 11 mph 1033.1mb 47f 44f
6:20 1ft 8s 4s 4 9 mph 1033.4mb 47f 44f
5:50 1ft 11s 4s 11 13 mph 1032.7mb 47f 44f
5:20 1ft 12s 4s 11 13 mph 1032.8mb 47f 44f
4:50 1ft 9s 4s 11
mph
1032.9mb 47f 44f
4:20 0.7ft  -  4s 11
mph
1033mb 47f 45f
3:50 0.7ft  -  4s 9
mph
1033.2mb 47f 45f
3:20 0.7ft  -  4s 7 9 mph 1033.6mb 48f 45f
2:50 0.7ft  -  4s 7 9 mph 1033.9mb 47f 45f
2:20 0.7ft  -  4s 9
mph
1033.5mb 47f 45f
1:50 0.7ft  -  4s 9
mph
1033.2mb 47f 45f
1:20 0.7ft  -  4s 7 9 mph 1032.8mb 47f 45f
12:50 0.7ft  -  4s 9
mph
1032.6mb 47f 45f
12:20 1ft 11s 4s 11
mph
1032.5mb 47f 45f
Sa 02/06 11:50 1ft 11s 5s 11 13 mph 1032.3mb 47f 46f
11:20 1ft 10s 6s 9 11 mph 1032.7mb 47f 46f
10:50 1.3ft 11s 8s 9 11 mph 1032.6mb 47f 46f
10:20 1.6ft 11s 10s 9 11 mph 1032.4mb 47f 46f
9:50 1.3ft 11s 9s 7 9 mph 1032.5mb 47f 46f
9:20 1.6ft 11s 9s 9
mph
1032mb 47f 46f
8:50 1ft 11s 8s 9
mph
1032.1mb 47f 47f
8:20 1ft 12s 8s 9
mph
1031.4mb 47f 47f
7:50 0.7ft  -  7s 7 9 mph 1031.1mb 47f 47f
7:20 0.7ft  -  6s 9
mph
1031.2mb 47f 47f
6:50 1ft 10s 6s 9
mph
1031.1mb 47f 47f
6:20 0.7ft  -  7s 9
mph
1031.3mb 47f 47f
5:50 0.7ft  -  5s 7 9 mph 1031.4mb 48f 47f
5:20 0.3ft  -  5s 7 9 mph 1031mb 48f 47f
4:50 0.3ft  -  4s 7 9 mph 1030.7mb 48f 47f
4:20 0.3ft  -  4s 7 9 mph 1030.6mb 48f 47f
3:50 0.7ft  -  4s 7 9 mph 1030.8mb 48f 47f
3:20 0.7ft  -  4s 7
mph
1031mb 48f 46f
2:50 0.7ft  -  5s 7
mph
1030.9mb 48f 46f
2:20 0.7ft  -  4s 4 7 mph 1031.3mb 48f 46f
1:50 0.7ft  -  4s 7 9 mph 1030.8mb 48f 46f
1:20 1ft 13s 4s 4
mph
1031mb 48f 46f
12:50 1ft 3s 3s 4
mph
1031.1mb 48f 46f
12:20 1ft 3s 3s 4
mph
1030.7mb 47f 46f
11:50 1.3ft 3s 3s 7
mph
1031.2mb 47f 46f
11:20 1.6ft 3s 3s 11
mph
1031.2mb 47f 46f
10:50 1.6ft 3s 4s 11 13 mph 1031mb 47f 46f
10:20 2ft 4s 4s 13
mph
1030.5mb 47f 46f
9:50 1.6ft 4s 4s 13 16 mph 1030.2mb 47f 46f
9:20 2ft 4s 4s 13 16 mph 1030mb 47f 46f
8:50 2ft 4s 4s 16 20 mph 1029.8mb 47f 46f
8:20 2ft 4s 4s 18 22 mph 1029.4mb 47f 46f
7:50 2ft 4s 4s 16 20 mph 1028.7mb 47f 47f
7:20 2.5ft 4s 4s 13 16 mph 1028.4mb 47f 47f
6:50 2.5ft 4s 4s 20 27 mph 1027.7mb 47f 47f
6:20 2.5ft 4s 4s 20 22 mph 1027.3mb 47f 47f
5:50 2.5ft 4s 4s 22 25 mph 1026.5mb 47f 47f
5:20 2.5ft 4s 4s 20 25 mph 1026mb 47f 47f
4:50 2.5ft 4s 3s 25 29 mph 1025.4mb 47f 46f
4:20 2.5ft 3s 3s 25 29 mph 1024.6mb 47f 46f
3:50 3ft 4s 3s 25 29 mph 1024.1mb 47f 47f
3:20 3ft 4s 3s 22 27 mph 1024mb 47f 46f
2:50 3.5ft 4s 4s 25 29 mph 1023.9mb 47f 47f
2:20 3ft 4s 3s 29 34 mph 1023.2mb 48f 47f
1:50 3ft 4s 4s 20 22 mph 1023.1mb 48f 47f
1:20 4ft 4s 4s 20 25 mph 1022.5mb 48f 48f
12:50 4.5ft 4s 4s 22 29 mph 1022.3mb 48f 48f
12:20 3.5ft 5s 4s 27 34 mph 1021.8mb 48f 48f
Fr 02/05 11:50 4.5ft 5s 4s 27 31 mph 1021.1mb 48f 48f
11:20 5ft 5s 4s 34 38 mph 1019.2mb 48f 48f
10:50 5ft 6s 4s 29 36 mph 1019mb 48f 48f
10:20 4.5ft 6s 4s 27 31 mph 1019.3mb 48f 47f
9:50 5ft 5s 5s 27 34 mph 1018.4mb 48f 47f
9:20 5ft 5s 5s 25 31 mph 1018.2mb 48f 47f
8:50 3.5ft 5s 4s 36 45 mph 1017mb 48f 47f
8:20 2ft 4s 3s 31 38 mph 1016.4mb 48f 47f
7:50 2ft 4s 4s 11 16 mph 1014.4mb 48f 51f